createdAt,value
2018-07-22T00:00:03.369Z,3
2018-07-22T00:05:02.670Z,2
2018-07-22T00:10:03.158Z,2
2018-07-22T00:15:02.539Z,2
2018-07-22T00:20:03.011Z,0
2018-07-22T00:25:03.485Z,0
2018-07-22T00:30:02.862Z,0
2018-07-22T00:35:03.332Z,2
2018-07-22T00:40:02.791Z,2
2018-07-22T00:45:03.165Z,0
2018-07-22T00:50:02.547Z,0
2018-07-22T00:55:03.009Z,0
2018-07-22T01:00:04.130Z,0
2018-07-22T01:05:02.927Z,0
2018-07-22T01:10:03.403Z,2
2018-07-22T01:15:02.786Z,1
2018-07-22T01:20:03.205Z,0
2018-07-22T01:25:02.601Z,0
2018-07-22T01:30:03.055Z,0
2018-07-22T01:35:02.495Z,0
2018-07-22T01:40:03.023Z,0
2018-07-22T01:45:03.377Z,0
2018-07-22T01:50:02.794Z,0
2018-07-22T01:55:03.478Z,0
2018-07-22T02:00:02.833Z,0
2018-07-22T02:05:03.215Z,0
2018-07-22T02:10:02.690Z,0
2018-07-22T02:15:03.065Z,0
2018-07-22T02:20:02.644Z,1
2018-07-22T02:25:03.056Z,1
2018-07-22T02:30:03.485Z,1
2018-07-22T02:35:03.131Z,0
2018-07-22T02:40:02.664Z,0
2018-07-22T02:45:03.102Z,0
2018-07-22T02:50:02.531Z,0
2018-07-22T02:55:02.977Z,1
2018-07-22T03:00:03.625Z,0
2018-07-22T03:05:03.132Z,0
2018-07-22T03:10:02.607Z,0
2018-07-22T03:15:02.969Z,0
2018-07-22T03:20:03.478Z,0
2018-07-22T03:25:02.915Z,0
2018-07-22T03:30:03.447Z,0
2018-07-22T03:35:02.919Z,0
2018-07-22T03:40:02.495Z,2
2018-07-22T03:45:02.943Z,0
2018-07-22T03:50:03.334Z,0
2018-07-22T03:55:02.752Z,2
2018-07-22T04:00:03.129Z,0
2018-07-22T04:05:02.595Z,1
2018-07-22T04:10:03.337Z,1
2018-07-22T04:15:02.773Z,0
2018-07-22T04:20:03.139Z,2
2018-07-22T04:25:02.528Z,1
2018-07-22T04:30:03.326Z,2
2018-07-22T04:35:02.739Z,1
2018-07-22T04:40:03.368Z,5
2018-07-22T04:45:02.802Z,2
2018-07-22T04:50:02.647Z,4
2018-07-22T04:55:03.060Z,2
2018-07-22T05:00:03.523Z,2
2018-07-22T05:05:02.877Z,2
2018-07-22T05:10:03.412Z,4
2018-07-22T05:15:02.882Z,2
2018-07-22T05:20:03.318Z,3
2018-07-22T05:25:02.674Z,0
2018-07-22T05:30:03.153Z,0
2018-07-22T05:35:02.611Z,2
2018-07-22T05:40:03.040Z,0
2018-07-22T05:45:02.579Z,0
2018-07-22T05:50:02.990Z,1
2018-07-22T05:55:03.399Z,1
2018-07-22T06:00:02.788Z,3
2018-07-22T06:05:03.318Z,2
2018-07-22T06:10:02.661Z,3
2018-07-22T06:15:03.257Z,0
2018-07-22T06:20:02.743Z,0
2018-07-22T06:25:03.176Z,2
2018-07-22T06:30:02.676Z,2
2018-07-22T06:35:03.056Z,3
2018-07-22T06:40:03.511Z,3
2018-07-22T06:45:02.905Z,0
2018-07-22T06:50:03.361Z,0
2018-07-22T06:55:02.735Z,3
2018-07-22T07:00:03.060Z,1
2018-07-22T07:05:03.788Z,1
2018-07-22T07:10:03.416Z,1
2018-07-22T07:15:02.773Z,1
2018-07-22T07:20:03.247Z,0
2018-07-22T07:25:02.678Z,0
2018-07-22T07:30:03.087Z,0
2018-07-22T07:35:02.600Z,0
2018-07-22T07:40:03.095Z,0
2018-07-22T07:45:02.605Z,3
2018-07-22T07:50:03.051Z,1
2018-07-22T07:55:02.942Z,2
2018-07-22T08:00:03.411Z,0
2018-07-22T08:05:02.804Z,1
2018-07-22T08:10:03.382Z,2
2018-07-22T08:15:02.815Z,0
2018-07-22T08:20:03.275Z,0
2018-07-22T08:25:02.924Z,0
2018-07-22T08:30:03.550Z,0
2018-07-22T08:35:03.006Z,1
2018-07-22T08:40:02.535Z,0
2018-07-22T08:45:02.931Z,0
2018-07-22T08:50:02.494Z,0
2018-07-22T08:55:02.915Z,0
2018-07-22T09:00:03.463Z,0
2018-07-22T09:05:02.870Z,0
2018-07-22T09:10:03.318Z,1
2018-07-22T09:15:02.661Z,2
2018-07-22T09:20:03.103Z,0
2018-07-22T09:25:02.515Z,0
2018-07-22T09:30:02.917Z,0
2018-07-22T09:35:03.404Z,0
2018-07-22T09:40:02.912Z,2
2018-07-22T09:45:03.517Z,0
2018-07-22T09:50:02.923Z,0
2018-07-22T09:55:03.342Z,0
2018-07-22T10:00:02.849Z,3
2018-07-22T10:05:03.550Z,0
2018-07-22T10:10:03.019Z,0
2018-07-22T10:15:03.418Z,0
2018-07-22T10:20:02.865Z,0
2018-07-22T10:25:03.346Z,2
2018-07-22T10:30:02.681Z,0
2018-07-22T10:35:03.154Z,3
2018-07-22T10:40:02.582Z,1
2018-07-22T10:45:03.032Z,3
2018-07-22T10:50:03.368Z,1
2018-07-22T10:55:02.698Z,3
2018-07-22T11:00:03.082Z,1
2018-07-22T11:05:02.494Z,1
2018-07-22T11:10:02.978Z,0
2018-07-22T11:15:03.314Z,0
2018-07-22T11:20:02.696Z,2
2018-07-22T11:25:03.079Z,2
2018-07-22T11:30:03.448Z,0
2018-07-22T11:35:02.850Z,2
2018-07-22T11:40:03.237Z,0
2018-07-22T11:45:02.751Z,1
2018-07-22T11:50:03.170Z,4
2018-07-22T11:55:02.625Z,2
2018-07-22T12:00:03.173Z,2
2018-07-22T12:05:02.677Z,2
2018-07-22T12:10:03.201Z,2
2018-07-22T12:15:02.573Z,2
2018-07-22T12:20:03.160Z,2
2018-07-22T12:25:02.550Z,2
2018-07-22T12:30:02.964Z,3
2018-07-22T12:35:03.351Z,0
2018-07-22T12:40:02.788Z,0
2018-07-22T12:45:03.101Z,1
2018-07-22T12:50:03.514Z,3
2018-07-22T12:55:02.894Z,2
2018-07-22T13:00:03.341Z,1
2018-07-22T13:05:02.730Z,0
2018-07-22T13:10:03.166Z,0
2018-07-22T13:15:02.606Z,0
2018-07-22T13:20:03.044Z,0
2018-07-22T13:25:03.392Z,0
2018-07-22T13:30:02.790Z,0
2018-07-22T13:35:03.232Z,0
2018-07-22T13:40:02.660Z,0
2018-07-22T13:45:03.063Z,0
2018-07-22T13:50:02.519Z,0
2018-07-22T13:55:02.927Z,0
2018-07-22T14:00:03.419Z,0
2018-07-22T14:05:02.791Z,0
2018-07-22T14:10:03.269Z,0
2018-07-22T14:15:02.694Z,1
2018-07-22T14:20:03.121Z,0
2018-07-22T14:25:02.968Z,0
2018-07-22T14:30:02.519Z,0
2018-07-22T14:35:03.323Z,0
2018-07-22T14:40:02.970Z,0
2018-07-22T14:45:02.482Z,0
2018-07-22T14:50:02.871Z,2
2018-07-22T14:55:03.293Z,0
2018-07-22T15:00:03.049Z,1
2018-07-22T15:05:02.494Z,2
2018-07-22T15:10:02.951Z,3
2018-07-22T15:15:03.361Z,3
2018-07-22T15:20:02.795Z,2
2018-07-22T15:25:03.192Z,4
2018-07-22T15:30:02.576Z,0
2018-07-22T15:35:03.041Z,0
2018-07-22T15:40:03.647Z,0
2018-07-22T15:45:03.142Z,0
2018-07-22T15:50:02.496Z,0
2018-07-22T15:55:03.188Z,5
2018-07-22T16:00:02.745Z,4
2018-07-22T16:05:03.166Z,4
2018-07-22T16:10:02.569Z,7
2018-07-22T16:15:02.929Z,6
2018-07-22T16:20:03.576Z,5
2018-07-22T16:25:02.898Z,3
2018-07-22T16:30:03.256Z,8
2018-07-22T16:35:02.624Z,6
2018-07-22T16:40:03.109Z,3
2018-07-22T16:45:02.530Z,3
2018-07-22T16:50:02.955Z,6
2018-07-22T16:55:03.406Z,8
2018-07-22T17:00:02.823Z,5
2018-07-22T17:05:03.282Z,7
2018-07-22T17:10:02.643Z,5
2018-07-22T17:15:02.968Z,7
2018-07-22T17:20:03.457Z,6
2018-07-22T17:25:02.771Z,5
2018-07-22T17:30:03.185Z,7
2018-07-22T17:35:02.668Z,10
2018-07-22T17:40:03.177Z,5
2018-07-22T17:45:02.655Z,7
2018-07-22T17:50:03.158Z,8
2018-07-22T17:55:02.542Z,10
2018-07-22T18:00:02.958Z,7
2018-07-22T18:05:03.503Z,9
2018-07-22T18:10:02.940Z,6
2018-07-22T18:15:03.411Z,5
2018-07-22T18:20:02.850Z,5
2018-07-22T18:25:03.295Z,6
2018-07-22T18:30:02.655Z,3
2018-07-22T18:35:03.094Z,5
2018-07-22T18:40:02.607Z,4
2018-07-22T18:45:03.151Z,5
2018-07-22T18:50:02.529Z,6
2018-07-22T18:55:03.413Z,3
2018-07-22T19:00:03.243Z,2
2018-07-22T19:05:02.775Z,3
2018-07-22T19:10:03.169Z,2
2018-07-22T19:15:02.596Z,2
2018-07-22T19:20:03.225Z,1
2018-07-22T19:25:02.575Z,2
2018-07-22T19:30:03.025Z,1
2018-07-22T19:35:02.509Z,0
2018-07-22T19:40:03.210Z,2
2018-07-22T19:45:02.802Z,0
2018-07-22T19:50:03.402Z,0
2018-07-22T19:55:02.825Z,0
2018-07-22T20:00:03.571Z,0
2018-07-22T20:05:03.086Z,0
2018-07-22T20:10:02.515Z,0
2018-07-22T20:15:02.981Z,0
2018-07-22T20:20:03.381Z,0
2018-07-22T20:25:02.911Z,0
2018-07-22T20:30:03.396Z,0
2018-07-22T20:35:02.788Z,0
2018-07-22T20:40:03.291Z,0
2018-07-22T20:45:03.135Z,0
2018-07-22T20:50:02.685Z,0
2018-07-22T20:55:03.052Z,0
2018-07-22T21:00:03.463Z,0
2018-07-22T21:05:02.800Z,0
2018-07-22T21:10:03.287Z,0
2018-07-22T21:15:02.964Z,0
2018-07-22T21:20:02.623Z,0
2018-07-22T21:25:02.990Z,0
2018-07-22T21:30:03.706Z,0
2018-07-22T21:35:03.177Z,0
2018-07-22T21:40:02.634Z,0
2018-07-22T21:45:03.056Z,0
2018-07-22T21:50:03.453Z,0
2018-07-22T21:55:02.872Z,0
2018-07-22T22:00:03.312Z,0
2018-07-22T22:05:02.783Z,0
2018-07-22T22:10:03.611Z,0
2018-07-22T22:15:03.379Z,0
2018-07-22T22:20:02.767Z,0
2018-07-22T22:25:03.230Z,0
2018-07-22T22:30:02.701Z,0
2018-07-22T22:35:03.148Z,0
2018-07-22T22:40:02.595Z,0
2018-07-22T22:45:03.048Z,0
2018-07-22T22:50:03.427Z,0
2018-07-22T22:55:02.719Z,0
2018-07-22T23:00:03.138Z,0
2018-07-22T23:05:02.545Z,0
2018-07-22T23:10:03.068Z,0
2018-07-22T23:15:02.521Z,0
2018-07-22T23:20:02.936Z,0
2018-07-22T23:25:03.287Z,0
2018-07-22T23:30:02.775Z,0
2018-07-22T23:35:03.224Z,0
2018-07-22T23:40:02.639Z,0
2018-07-22T23:45:03.025Z,0
2018-07-22T23:50:03.402Z,0
2018-07-22T23:55:02.804Z,0
